Terminal Aerodrome Forecast
Issued by NWS

Home | Current Version | Previous Version | Graphics & Text | Print | Product List | Glossary On
Versions: 1 2 3 4 5 6 7 8 9 10 11 12 13 14 15 16 17 18 19 20 21 22 23 24 25 26 27 28
000
FTUS43 KGRB 261732
TAFRHI
TAF
KRHI 261732Z 2618/2718 26017G31KT P6SM SCT025 OVC040
      TEMPO 2618/2622 -SHRA BKN025
     FM262200 27013KT P6SM -SHRA OVC040
     FM270100 27013KT P6SM VCSH OVC030
     FM270300 27014KT P6SM OVC025
     FM271000 28012KT P6SM OVC015
      TEMPO 2714/2718 6SM -SHRA BKN010=

USA.gov is the U.S. government's official web portal to all federal, state and local government web resources and services.